Time;durP1;ratioP1;P1;durP2;ratioP2;P2;SDS_P1;SDS_P2;PMS_P1;PMS_P2;Temp;Humidity;BMP_temperature;BMP_pressure;BME280_temperature;BME280_humidity;BME280_pressure;Samples;Min_cycle;Max_cycle;Signal;HPM_P1;HPM_P2
2021/07/04 00:02:10;;;;;;;8.33;7.50;;;;;;;;;;5095579;28;20565;-79
2021/07/04 00:04:39;;;;;;;8.07;7.27;;;;;;;;;;5095362;28;20179;-83
2021/07/04 00:07:10;;;;;;;8.03;7.30;;;;;;;;;;5089148;28;20204;-80
2021/07/04 00:09:36;;;;;;;9.37;7.53;;;;;;;;;;5088832;28;20186;-83
2021/07/04 00:12:05;;;;;;;21.07;10.23;;;;;;;;;;5094143;28;20183;-80
2021/07/04 00:14:32;;;;;;;21.37;10.77;;;;;;;;;;5090260;28;20187;-80
2021/07/04 00:16:58;;;;;;;9.50;8.20;;;;;;;;;;5098199;28;20226;-82
2021/07/04 00:19:24;;;;;;;12.97;8.17;;;;;;;;;;5095664;28;20183;-82
2021/07/04 00:21:50;;;;;;;12.50;9.23;;;;;;;;;;5080814;28;20283;-81
2021/07/04 00:24:16;;;;;;;11.73;8.77;;;;;;;;;;5084358;28;20180;-81
2021/07/04 00:26:42;;;;;;;12.13;8.80;;;;;;;;;;5096769;28;20180;-81
2021/07/04 00:29:08;;;;;;;10.40;8.37;;;;;;;;;;5098488;28;20682;-80
2021/07/04 00:31:34;;;;;;;8.93;8.03;;;;;;;;;;5082693;28;20251;-81
2021/07/04 00:34:01;;;;;;;8.87;8.00;;;;;;;;;;5109799;28;20183;-81
2021/07/04 00:36:27;;;;;;;8.27;7.40;;;;;;;;;;5094139;28;20224;-82
2021/07/04 00:38:53;;;;;;;11.03;8.03;;;;;;;;;;5096243;28;20184;-82
2021/07/04 00:41:20;;;;;;;8.87;7.80;;;;;;;;;;5084427;28;20182;-81
2021/07/04 00:43:48;;;;;;;9.10;7.87;;;;;;;;;;5096365;28;20639;-81
2021/07/04 00:46:14;;;;;;;9.67;7.77;;;;;;;;;;5094620;28;20180;-82
2021/07/04 00:48:40;;;;;;;8.43;6.90;;;;;;;;;;5092368;28;20191;-82
2021/07/04 00:51:09;;;;;;;8.93;7.30;;;;;;;;;;5086700;28;20230;-82
2021/07/04 00:53:35;;;;;;;8.77;7.77;;;;;;;;;;5081372;28;20339;-82
2021/07/04 00:56:01;;;;;;;8.53;7.77;;;;;;;;;;5092354;28;20664;-81
2021/07/04 00:58:27;;;;;;;8.23;7.43;;;;;;;;;;5091785;28;20180;-81
2021/07/04 01:00:53;;;;;;;10.60;7.77;;;;;;;;;;5085555;28;20266;-81
2021/07/04 01:03:19;;;;;;;8.50;7.80;;;;;;;;;;5092932;28;20242;-81
2021/07/04 01:05:45;;;;;;;9.97;7.27;;;;;;;;;;5091735;28;20176;-81
2021/07/04 01:08:11;;;;;;;9.13;8.13;;;;;;;;;;5090393;28;20218;-81
2021/07/04 01:10:38;;;;;;;9.90;8.57;;;;;;;;;;5084121;28;20640;-81
2021/07/04 01:13:05;;;;;;;11.60;8.90;;;;;;;;;;5090547;28;20180;-83
2021/07/04 01:15:31;;;;;;;10.30;9.20;;;;;;;;;;5088156;28;20180;-81
2021/07/04 01:17:59;;;;;;;10.23;9.27;;;;;;;;;;5086152;28;20190;-81
2021/07/04 01:20:26;;;;;;;9.60;8.70;;;;;;;;;;5082875;28;20275;-81
2021/07/04 01:22:59;;;;;;;10.23;9.23;;;;;;;;;;5092713;28;20683;-81
2021/07/04 01:25:26;;;;;;;9.83;8.83;;;;;;;;;;5076916;28;20708;-81
2021/07/04 01:27:53;;;;;;;12.53;9.80;;;;;;;;;;5088492;28;20183;-81
2021/07/04 01:30:20;;;;;;;10.73;9.60;;;;;;;;;;5088661;28;20713;-81
2021/07/04 01:32:46;;;;;;;11.20;9.90;;;;;;;;;;5092558;28;20530;-81
2021/07/04 01:35:12;;;;;;;9.83;8.83;;;;;;;;;;5090925;28;20211;-81
2021/07/04 01:37:38;;;;;;;11.53;10.13;;;;;;;;;;5092298;28;20202;-81
2021/07/04 01:40:05;;;;;;;9.73;8.83;;;;;;;;;;5084524;28;20183;-82
2021/07/04 01:42:31;;;;;;;10.20;9.20;;;;;;;;;;5091057;28;20214;-82
2021/07/04 01:44:57;;;;;;;10.87;9.73;;;;;;;;;;5084726;28;20179;-82
2021/07/04 01:47:23;;;;;;;12.50;11.20;;;;;;;;;;5089840;28;20420;-82
2021/07/04 01:49:49;;;;;;;10.73;9.60;;;;;;;;;;5090564;28;20221;-82
2021/07/04 01:52:15;;;;;;;9.73;8.83;;;;;;;;;;5090839;28;20272;-82
2021/07/04 01:54:41;;;;;;;9.27;8.03;;;;;;;;;;5083147;28;20188;-82
2021/07/04 01:57:13;;;;;;;9.70;8.80;;;;;;;;;;5086314;28;20183;-82
2021/07/04 01:59:44;;;;;;;9.40;8.37;;;;;;;;;;5087115;28;20185;-82
2021/07/04 02:02:10;;;;;;;9.63;8.73;;;;;;;;;;5082844;28;20264;-83
2021/07/04 02:04:40;;;;;;;10.60;7.73;;;;;;;;;;5090008;28;20175;-82
2021/07/04 02:07:07;;;;;;;8.77;7.93;;;;;;;;;;5089276;28;20577;-82
2021/07/04 02:09:42;;;;;;;9.63;8.67;;;;;;;;;;5089101;28;20580;-82
2021/07/04 02:12:08;;;;;;;11.33;9.00;;;;;;;;;;5087238;28;20275;-82
2021/07/04 02:14:34;;;;;;;10.67;8.43;;;;;;;;;;5090730;28;20203;-82
2021/07/04 02:17:00;;;;;;;9.50;8.60;;;;;;;;;;5090518;28;20180;-81
2021/07/04 02:19:33;;;;;;;9.63;8.57;;;;;;;;;;5086772;28;20185;-82
2021/07/04 02:22:00;;;;;;;8.50;7.80;;;;;;;;;;5093804;28;20196;-81
2021/07/04 02:24:26;;;;;;;9.50;8.60;;;;;;;;;;5083598;28;20245;-82
2021/07/04 02:26:52;;;;;;;8.83;8.03;;;;;;;;;;5090738;28;20239;-82
2021/07/04 02:29:18;;;;;;;9.27;8.33;;;;;;;;;;5080375;28;20292;-81
2021/07/04 02:31:44;;;;;;;9.73;8.70;;;;;;;;;;5090261;28;20204;-82
2021/07/04 02:34:10;;;;;;;9.90;8.93;;;;;;;;;;5091107;28;20189;-81
2021/07/04 02:36:36;;;;;;;10.03;9.10;;;;;;;;;;5088240;28;20315;-81
2021/07/04 02:39:03;;;;;;;9.50;8.50;;;;;;;;;;5082936;28;20192;-81
2021/07/04 02:41:29;;;;;;;10.53;8.90;;;;;;;;;;5084013;28;20205;-81
2021/07/04 02:43:55;;;;;;;9.70;8.80;;;;;;;;;;5089483;28;20184;-81
2021/07/04 02:46:21;;;;;;;10.03;9.13;;;;;;;;;;5088967;28;20199;-82
2021/07/04 02:48:47;;;;;;;8.77;7.97;;;;;;;;;;5089088;28;20177;-82
2021/07/04 02:51:13;;;;;;;11.53;9.67;;;;;;;;;;5090875;28;20177;-82
2021/07/04 02:53:39;;;;;;;9.03;8.03;;;;;;;;;;5084013;28;20610;-81
2021/07/04 02:56:05;;;;;;;9.43;8.43;;;;;;;;;;5085532;28;20180;-82
2021/07/04 02:58:31;;;;;;;10.20;8.87;;;;;;;;;;5090416;28;20246;-81
2021/07/04 03:00:57;;;;;;;9.20;8.40;;;;;;;;;;5087932;28;20184;-81
2021/07/04 03:03:23;;;;;;;10.37;9.23;;;;;;;;;;5082674;28;20193;-81
2021/07/04 03:05:49;;;;;;;9.27;8.17;;;;;;;;;;5077446;28;20252;-82
2021/07/04 03:08:16;;;;;;;9.73;8.63;;;;;;;;;;5088836;28;20873;-81
2021/07/04 03:10:42;;;;;;;9.20;8.33;;;;;;;;;;5078566;28;20187;-81
2021/07/04 03:13:08;;;;;;;9.43;8.50;;;;;;;;;;5090853;28;20191;-81
2021/07/04 03:15:34;;;;;;;8.87;8.00;;;;;;;;;;5082910;28;20618;-81
2021/07/04 03:18:00;;;;;;;10.03;8.20;;;;;;;;;;5085782;28;20287;-81
2021/07/04 03:20:26;;;;;;;8.83;8.03;;;;;;;;;;5088009;28;20188;-81
2021/07/04 03:22:52;;;;;;;8.50;7.73;;;;;;;;;;5084875;28;20197;-81
2021/07/04 03:25:18;;;;;;;9.13;8.00;;;;;;;;;;5080977;28;20173;-81
2021/07/04 03:27:45;;;;;;;9.97;8.93;;;;;;;;;;5090899;28;20211;-82
2021/07/04 03:30:15;;;;;;;9.43;8.53;;;;;;;;;;5090814;28;20172;-81
2021/07/04 03:32:41;;;;;;;10.13;8.63;;;;;;;;;;5085763;28;20184;-81
2021/07/04 03:35:09;;;;;;;9.90;8.77;;;;;;;;;;5075719;28;20555;-81
2021/07/04 03:37:36;;;;;;;9.13;8.33;;;;;;;;;;5071815;28;20192;-82
2021/07/04 03:40:03;;;;;;;10.70;8.53;;;;;;;;;;5071780;28;20247;-81
2021/07/04 03:42:29;;;;;;;11.27;10.07;;;;;;;;;;5090581;28;20203;-82
2021/07/04 03:44:56;;;;;;;10.60;9.43;;;;;;;;;;5072022;28;20587;-81
2021/07/04 03:47:25;;;;;;;9.90;9.00;;;;;;;;;;5072021;28;20176;-81
2021/07/04 03:49:51;;;;;;;10.00;9.10;;;;;;;;;;5071219;28;20646;-82
2021/07/04 03:52:17;;;;;;;9.83;8.93;;;;;;;;;;5070728;28;20184;-82
2021/07/04 03:54:43;;;;;;;9.97;8.97;;;;;;;;;;5088944;28;20187;-81
2021/07/04 03:57:21;;;;;;;9.53;8.73;;;;;;;;;;5071525;28;20544;-81
2021/07/04 03:59:52;;;;;;;10.17;9.27;;;;;;;;;;5071750;28;20535;-81
2021/07/04 04:02:18;;;;;;;9.60;8.70;;;;;;;;;;5072962;28;20234;-82
2021/07/04 04:04:44;;;;;;;10.53;9.40;;;;;;;;;;5071305;28;20172;-81
2021/07/04 04:07:10;;;;;;;10.60;9.50;;;;;;;;;;5072070;28;20211;-82
2021/07/04 04:09:36;;;;;;;11.33;10.20;;;;;;;;;;5071440;28;20623;-82
2021/07/04 04:12:02;;;;;;;11.33;10.23;;;;;;;;;;5072811;28;20176;-81
2021/07/04 04:14:28;;;;;;;11.47;10.23;;;;;;;;;;5075484;28;20575;-82
2021/07/04 04:16:54;;;;;;;10.47;9.57;;;;;;;;;;5072424;28;20278;-82
2021/07/04 04:19:20;;;;;;;11.50;10.50;;;;;;;;;;5072311;28;20272;-81
2021/07/04 04:21:46;;;;;;;11.53;10.27;;;;;;;;;;5072766;28;20204;-82
2021/07/04 04:24:12;;;;;;;12.17;10.90;;;;;;;;;;5090608;28;20221;-82
2021/07/04 04:26:39;;;;;;;11.40;10.23;;;;;;;;;;5072400;28;20191;-81
2021/07/04 04:29:05;;;;;;;12.37;11.23;;;;;;;;;;5073209;28;20638;-81
2021/07/04 04:31:31;;;;;;;11.67;10.67;;;;;;;;;;5094518;28;20179;-81
2021/07/04 04:33:57;;;;;;;13.03;10.63;;;;;;;;;;5075690;28;20207;-82
2021/07/04 04:36:24;;;;;;;12.70;11.43;;;;;;;;;;5074156;28;20263;-81
2021/07/04 04:38:50;;;;;;;12.67;11.43;;;;;;;;;;5075245;28;20215;-81
2021/07/04 04:41:18;;;;;;;14.33;12.83;;;;;;;;;;5075045;28;20184;-81
2021/07/04 04:43:45;;;;;;;13.00;10.47;;;;;;;;;;5094412;28;20179;-81
2021/07/04 04:46:11;;;;;;;13.40;11.17;;;;;;;;;;5076033;28;20626;-82
2021/07/04 04:48:37;;;;;;;14.23;12.73;;;;;;;;;;5076951;28;20232;-81
2021/07/04 04:51:04;;;;;;;13.60;12.20;;;;;;;;;;5077597;28;20514;-81
2021/07/04 04:53:30;;;;;;;14.80;13.30;;;;;;;;;;5077221;28;20179;-81
2021/07/04 04:55:56;;;;;;;13.77;12.10;;;;;;;;;;5074176;28;20627;-81
2021/07/04 04:58:22;;;;;;;15.87;14.17;;;;;;;;;;5076384;28;20176;-83
2021/07/04 05:00:48;;;;;;;15.60;13.43;;;;;;;;;;5071457;28;20195;-82
2021/07/04 05:03:14;;;;;;;15.37;13.77;;;;;;;;;;5095421;28;20206;-81
2021/07/04 05:05:40;;;;;;;16.00;14.10;;;;;;;;;;5075621;28;20183;-82
2021/07/04 05:08:06;;;;;;;17.60;14.23;;;;;;;;;;5076599;28;20195;-81
2021/07/04 05:10:32;;;;;;;15.47;13.97;;;;;;;;;;5075166;28;20581;-81
2021/07/04 05:12:58;;;;;;;16.43;14.37;;;;;;;;;;5094722;28;20530;-81
2021/07/04 05:15:24;;;;;;;16.43;14.67;;;;;;;;;;5075673;28;20202;-81
2021/07/04 05:17:50;;;;;;;22.20;15.53;;;;;;;;;;5094261;28;20211;-82
2021/07/04 05:20:16;;;;;;;16.13;14.53;;;;;;;;;;5091343;28;20684;-81
2021/07/04 05:22:42;;;;;;;18.07;15.33;;;;;;;;;;5076108;28;20246;-82
2021/07/04 05:25:09;;;;;;;16.93;14.93;;;;;;;;;;5086146;28;20180;-81
2021/07/04 05:27:35;;;;;;;20.27;17.43;;;;;;;;;;5094659;28;20517;-82
2021/07/04 05:30:02;;;;;;;21.43;19.17;;;;;;;;;;5094099;28;20538;-81
2021/07/04 05:32:28;;;;;;;21.13;18.63;;;;;;;;;;5075952;28;20200;-83
2021/07/04 05:34:54;;;;;;;19.90;17.87;;;;;;;;;;5074996;28;20176;-82
2021/07/04 05:37:20;;;;;;;21.37;18.83;;;;;;;;;;5092931;28;20254;-81
2021/07/04 05:39:47;;;;;;;23.47;19.03;;;;;;;;;;5092326;28;20181;-82
2021/07/04 05:42:13;;;;;;;22.13;19.73;;;;;;;;;;5074903;28;20206;-82
2021/07/04 05:44:39;;;;;;;20.83;18.63;;;;;;;;;;5091419;28;20184;-82
2021/07/04 05:47:05;;;;;;;22.10;19.53;;;;;;;;;;5075264;28;20508;-82
2021/07/04 05:49:31;;;;;;;22.00;19.70;;;;;;;;;;5075518;28;20172;-81
2021/07/04 05:51:57;;;;;;;21.43;19.23;;;;;;;;;;5075155;28;20176;-82
2021/07/04 05:54:23;;;;;;;24.30;21.03;;;;;;;;;;5074577;28;20183;-81
2021/07/04 05:56:50;;;;;;;26.27;19.10;;;;;;;;;;5057480;28;20176;-81
2021/07/04 05:59:16;;;;;;;22.90;20.40;;;;;;;;;;5070849;28;20176;-81
2021/07/04 06:01:42;;;;;;;22.27;19.87;;;;;;;;;;5076635;28;20249;-81
2021/07/04 06:04:08;;;;;;;21.63;19.33;;;;;;;;;;5075104;28;20180;-82
2021/07/04 06:06:34;;;;;;;24.77;20.83;;;;;;;;;;5091005;28;20210;-81
2021/07/04 06:09:00;;;;;;;23.90;20.97;;;;;;;;;;5092031;28;20259;-81
2021/07/04 06:11:28;;;;;;;23.03;19.07;;;;;;;;;;5089821;28;20179;-81
2021/07/04 06:13:54;;;;;;;21.00;18.87;;;;;;;;;;5070799;28;20191;-81
2021/07/04 06:16:20;;;;;;;24.83;22.33;;;;;;;;;;5073128;28;20524;-81
2021/07/04 06:18:46;;;;;;;22.00;19.80;;;;;;;;;;5073754;28;20183;-82
2021/07/04 06:21:12;;;;;;;19.70;17.63;;;;;;;;;;5074049;28;20618;-82
2021/07/04 06:23:38;;;;;;;20.23;18.20;;;;;;;;;;5074136;28;20752;-83
2021/07/04 06:26:04;;;;;;;18.70;16.70;;;;;;;;;;5074523;28;20175;-82
2021/07/04 06:28:30;;;;;;;18.50;16.60;;;;;;;;;;5073927;28;20208;-82
2021/07/04 06:30:56;;;;;;;20.07;18.07;;;;;;;;;;5073480;28;20218;-81
2021/07/04 06:33:22;;;;;;;20.77;17.43;;;;;;;;;;5074803;28;20489;-81
2021/07/04 06:35:48;;;;;;;17.60;15.90;;;;;;;;;;5076104;28;20356;-81
2021/07/04 06:38:14;;;;;;;20.07;16.33;;;;;;;;;;5091097;28;20282;-81
2021/07/04 06:40:40;;;;;;;20.80;15.73;;;;;;;;;;5086975;28;20276;-82
2021/07/04 06:43:06;;;;;;;18.67;16.73;;;;;;;;;;5090036;28;20223;-82
2021/07/04 06:45:32;;;;;;;17.40;15.60;;;;;;;;;;5090411;28;20622;-82
2021/07/04 06:47:58;;;;;;;17.73;15.43;;;;;;;;;;5092039;28;20496;-82
2021/07/04 06:50:24;;;;;;;17.30;15.60;;;;;;;;;;5088643;28;20178;-82
2021/07/04 06:52:51;;;;;;;19.33;16.63;;;;;;;;;;5090156;28;20248;-81
2021/07/04 06:55:17;;;;;;;17.23;15.43;;;;;;;;;;5080056;28;20244;-82
2021/07/04 06:57:43;;;;;;;17.43;14.97;;;;;;;;;;5053223;28;20175;-82
2021/07/04 07:00:10;;;;;;;18.83;16.30;;;;;;;;;;5076644;28;20270;-82
2021/07/04 07:02:37;;;;;;;20.77;14.33;;;;;;;;;;5090937;28;20268;-82
2021/07/04 07:05:04;;;;;;;20.67;15.77;;;;;;;;;;5090686;28;20539;-82
2021/07/04 07:07:30;;;;;;;16.57;14.27;;;;;;;;;;5085869;28;20215;-82
2021/07/04 07:09:56;;;;;;;17.93;15.77;;;;;;;;;;5092014;28;20217;-82
2021/07/04 07:12:22;;;;;;;15.90;14.30;;;;;;;;;;5091250;28;20273;-82
2021/07/04 07:14:48;;;;;;;16.30;14.37;;;;;;;;;;5093331;28;20185;-82
2021/07/04 07:17:14;;;;;;;18.10;15.73;;;;;;;;;;5091943;28;20186;-83
2021/07/04 07:19:40;;;;;;;14.87;13.47;;;;;;;;;;5089052;28;20285;-83
2021/07/04 07:22:06;;;;;;;17.13;14.37;;;;;;;;;;5083788;28;20206;-84
2021/07/04 07:24:33;;;;;;;16.13;14.60;;;;;;;;;;5087110;28;20245;-84
2021/07/04 07:26:59;;;;;;;17.97;14.90;;;;;;;;;;5090427;28;20702;-84
2021/07/04 07:29:25;;;;;;;16.30;14.60;;;;;;;;;;5089458;28;20178;-84
2021/07/04 07:31:51;;;;;;;18.33;13.87;;;;;;;;;;5082748;28;20183;-84
2021/07/04 07:34:17;;;;;;;15.87;14.17;;;;;;;;;;5088343;28;20641;-83
2021/07/04 07:36:43;;;;;;;14.47;12.47;;;;;;;;;;5087772;28;20712;-82
2021/07/04 07:39:09;;;;;;;17.17;14.20;;;;;;;;;;5088479;28;20770;-81
2021/07/04 07:41:35;;;;;;;15.40;13.17;;;;;;;;;;5080329;28;20187;-84
2021/07/04 07:44:01;;;;;;;15.90;13.23;;;;;;;;;;5076772;28;21099;-84
2021/07/04 07:46:27;;;;;;;14.17;12.67;;;;;;;;;;5078083;28;20180;-83
2021/07/04 07:48:53;;;;;;;14.20;12.63;;;;;;;;;;5090474;28;20173;-82
2021/07/04 07:51:19;;;;;;;15.10;12.43;;;;;;;;;;5085883;28;20173;-82
2021/07/04 07:53:46;;;;;;;14.63;11.63;;;;;;;;;;5089762;28;20178;-82
2021/07/04 07:56:12;;;;;;;15.50;12.83;;;;;;;;;;5086035;28;20316;-82
2021/07/04 07:58:38;;;;;;;12.37;11.17;;;;;;;;;;5088339;28;20190;-82
2021/07/04 08:01:04;;;;;;;12.80;11.57;;;;;;;;;;5080615;28;20201;-82
2021/07/04 08:03:30;;;;;;;12.27;10.93;;;;;;;;;;5086819;28;20209;-82
2021/07/04 08:05:56;;;;;;;11.87;9.60;;;;;;;;;;5086394;28;20289;-82
2021/07/04 08:08:24;;;;;;;11.17;9.97;;;;;;;;;;5089486;28;20428;-81
2021/07/04 08:10:50;;;;;;;9.93;8.93;;;;;;;;;;5087771;28;20183;-82
2021/07/04 08:13:16;;;;;;;11.33;10.20;;;;;;;;;;5090341;28;20189;-82
2021/07/04 08:15:42;;;;;;;14.23;9.03;;;;;;;;;;5089696;28;20742;-82
2021/07/04 08:18:08;;;;;;;9.77;8.77;;;;;;;;;;5092593;28;20192;-82
2021/07/04 08:20:34;;;;;;;9.50;8.57;;;;;;;;;;5090107;28;20434;-82
2021/07/04 08:23:01;;;;;;;10.70;9.70;;;;;;;;;;5094401;28;20632;-81
2021/07/04 08:25:27;;;;;;;9.57;8.67;;;;;;;;;;5091426;28;20218;-82
2021/07/04 08:27:53;;;;;;;11.00;8.40;;;;;;;;;;5088004;28;20183;-82
2021/07/04 08:30:19;;;;;;;9.83;8.90;;;;;;;;;;5093688;28;20189;-84
2021/07/04 08:32:45;;;;;;;10.13;9.13;;;;;;;;;;5084242;28;20196;-82
2021/07/04 08:35:11;;;;;;;8.57;7.77;;;;;;;;;;5086863;28;20174;-84
2021/07/04 08:37:38;;;;;;;8.07;7.37;;;;;;;;;;5091950;28;20195;-81
2021/07/04 08:40:05;;;;;;;8.97;8.03;;;;;;;;;;5088739;28;20201;-81
2021/07/04 08:42:31;;;;;;;8.33;7.57;;;;;;;;;;5091688;28;20353;-80
2021/07/04 08:44:57;;;;;;;8.00;7.30;;;;;;;;;;5087808;28;20175;-80
2021/07/04 08:47:24;;;;;;;7.77;6.93;;;;;;;;;;5085890;28;20181;-81
2021/07/04 08:49:51;;;;;;;8.00;7.30;;;;;;;;;;5090582;28;20183;-80
2021/07/04 08:52:17;;;;;;;9.57;6.80;;;;;;;;;;5091704;28;20188;-81
2021/07/04 08:54:43;;;;;;;10.17;7.13;;;;;;;;;;5089319;28;20333;-81
2021/07/04 08:57:10;;;;;;;8.13;7.33;;;;;;;;;;5092395;28;20182;-81
2021/07/04 08:59:39;;;;;;;6.57;5.93;;;;;;;;;;5088321;28;20631;-79
2021/07/04 09:02:10;;;;;;;7.73;7.03;;;;;;;;;;5091974;28;20271;-81
2021/07/04 09:04:36;;;;;;;8.13;7.27;;;;;;;;;;5086765;28;20189;-81
2021/07/04 09:07:02;;;;;;;6.73;6.13;;;;;;;;;;5088481;28;20227;-84
2021/07/04 09:09:32;;;;;;;7.67;6.90;;;;;;;;;;5091285;28;20189;-82
2021/07/04 09:12:01;;;;;;;13.20;7.43;;;;;;;;;;5090045;28;20185;-79
2021/07/04 09:14:38;;;;;;;8.13;7.00;;;;;;;;;;5087897;28;20189;-79
2021/07/04 09:17:06;;;;;;;260.73;98.57;;;;;;;;;;5089201;28;20189;-80
2021/07/04 09:19:33;;;;;;;11.20;8.77;;;;;;;;;;5088069;28;20182;-80
2021/07/04 09:22:00;;;;;;;1063.40;334.83;;;;;;;;;;5090834;28;20209;-79
2021/07/04 09:24:34;;;;;;;42.43;19.67;;;;;;;;;;5090409;28;20175;-79
2021/07/04 09:27:00;;;;;;;8.50;7.10;;;;;;;;;;5091593;28;20284;-77
2021/07/04 09:29:48;;;;;;;19.20;9.67;;;;;;;;;;5078501;28;20236;-82
2021/07/04 09:32:17;;;;;;;9.67;7.27;;;;;;;;;;5086177;28;20239;-79
2021/07/04 09:34:55;;;;;;;11.20;6.57;;;;;;;;;;5087836;28;20569;-82
2021/07/04 09:37:53;;;;;;;7.47;6.60;;;;;;;;;;5091600;28;20210;-83
2021/07/04 09:40:20;;;;;;;6.73;6.13;;;;;;;;;;5055804;28;20191;-82
2021/07/04 09:42:58;;;;;;;8.93;6.43;;;;;;;;;;5091812;28;20232;-82
2021/07/04 09:45:26;;;;;;;7.67;6.87;;;;;;;;;;5085746;28;20204;-81
2021/07/04 09:47:56;;;;;;;9.30;6.70;;;;;;;;;;5090497;28;20609;-82
2021/07/04 09:50:23;;;;;;;7.87;6.93;;;;;;;;;;5087636;28;20264;-79
2021/07/04 09:52:55;;;;;;;12.20;8.27;;;;;;;;;;5091351;28;20191;-82
2021/07/04 09:55:21;;;;;;;8.90;7.30;;;;;;;;;;5091759;28;20244;-82
2021/07/04 09:58:26;;;;;;;8.23;7.37;;;;;;;;;;5088513;28;20508;-83
2021/07/04 10:00:52;;;;;;;11.73;7.53;;;;;;;;;;5025936;28;20643;-81
2021/07/04 10:03:22;;;;;;;9.50;7.13;;;;;;;;;;5014272;28;20197;-80
2021/07/04 10:05:51;;;;;;;10.93;8.13;;;;;;;;;;5052853;28;20234;-81
2021/07/04 10:08:18;;;;;;;9.53;8.13;;;;;;;;;;5084042;28;20513;-80
2021/07/04 10:10:44;;;;;;;8.60;7.33;;;;;;;;;;5091956;28;20180;-80
2021/07/04 10:13:10;;;;;;;7.73;6.93;;;;;;;;;;5078599;28;20186;-79
2021/07/04 10:15:36;;;;;;;8.60;7.20;;;;;;;;;;5092387;28;20543;-78
2021/07/04 10:18:03;;;;;;;7.03;6.43;;;;;;;;;;5088630;28;20293;-81
2021/07/04 10:20:29;;;;;;;8.10;7.30;;;;;;;;;;5092579;28;20182;-79
2021/07/04 10:22:55;;;;;;;7.57;6.90;;;;;;;;;;5087490;28;20260;-79
2021/07/04 10:25:21;;;;;;;7.40;6.77;;;;;;;;;;5084197;28;20214;-79
2021/07/04 10:27:49;;;;;;;6.67;5.97;;;;;;;;;;5086859;28;20179;-79
2021/07/04 10:30:15;;;;;;;6.57;5.00;;;;;;;;;;5088318;28;20189;-79
2021/07/04 10:33:03;;;;;;;6.30;4.33;;;;;;;;;;5091512;28;20180;-80
2021/07/04 10:35:29;;;;;;;3.50;3.20;;;;;;;;;;5086706;28;20301;-80
2021/07/04 10:38:11;;;;;;;3.37;3.07;;;;;;;;;;5085704;28;20178;-81
2021/07/04 10:40:37;;;;;;;4.47;3.60;;;;;;;;;;5089392;28;20182;-81
2021/07/04 10:43:03;;;;;;;3.80;3.50;;;;;;;;;;5092890;28;20203;-81
2021/07/04 10:45:37;;;;;;;5.17;4.33;;;;;;;;;;5092854;28;20184;-82
2021/07/04 10:48:19;;;;;;;6.20;4.63;;;;;;;;;;5091163;28;20201;-81
2021/07/04 10:51:05;;;;;;;6.07;5.37;;;;;;;;;;5091543;28;20187;-81
2021/07/04 10:53:43;;;;;;;6.53;5.77;;;;;;;;;;5086018;28;20552;-82
2021/07/04 10:56:28;;;;;;;6.23;5.63;;;;;;;;;;5085602;28;20188;-79
2021/07/04 10:59:14;;;;;;;6.57;5.87;;;;;;;;;;5090202;28;20183;-79
2021/07/04 11:01:54;;;;;;;8.30;4.40;;;;;;;;;;5090167;28;20187;-80
2021/07/04 11:04:32;;;;;;;5.27;4.77;;;;;;;;;;5084904;28;20251;-79
2021/07/04 11:06:59;;;;;;;5.00;4.20;;;;;;;;;;5091304;28;20499;-82
2021/07/04 11:09:26;;;;;;;6.83;5.33;;;;;;;;;;5090098;28;20625;-82
2021/07/04 11:12:11;;;;;;;5.53;4.23;;;;;;;;;;5088779;28;20587;-82
2021/07/04 11:14:38;;;;;;;4.80;4.40;;;;;;;;;;5078599;28;20180;-80
2021/07/04 11:17:04;;;;;;;3.77;3.47;;;;;;;;;;5081230;28;20184;-79
2021/07/04 11:19:30;;;;;;;5.53;4.70;;;;;;;;;;5088704;28;20172;-80
2021/07/04 11:21:56;;;;;;;4.77;4.37;;;;;;;;;;5084542;28;20564;-80
2021/07/04 11:24:32;;;;;;;4.20;3.80;;;;;;;;;;5087684;28;20581;-79
2021/07/04 11:27:16;;;;;;;7.37;6.50;;;;;;;;;;5083059;28;20168;-80
2021/07/04 11:30:01;;;;;;;7.90;7.10;;;;;;;;;;5087382;28;20201;-80
2021/07/04 11:32:27;;;;;;;7.87;7.00;;;;;;;;;;5087808;28;20268;-79
2021/07/04 11:34:53;;;;;;;7.07;6.10;;;;;;;;;;5082630;28;20227;-79
2021/07/04 11:37:19;;;;;;;7.27;6.57;;;;;;;;;;5088815;28;20696;-79
2021/07/04 11:39:59;;;;;;;6.57;5.83;;;;;;;;;;5089235;28;20260;-79
2021/07/04 11:42:25;;;;;;;7.40;6.67;;;;;;;;;;5082455;28;20257;-79
2021/07/04 11:44:51;;;;;;;6.70;6.10;;;;;;;;;;5092319;28;20562;-79
2021/07/04 11:47:17;;;;;;;6.57;5.77;;;;;;;;;;5090065;28;20290;-79
2021/07/04 11:49:43;;;;;;;7.10;6.17;;;;;;;;;;5086485;28;20385;-80
2021/07/04 11:52:10;;;;;;;7.93;6.53;;;;;;;;;;5083483;28;20583;-78
2021/07/04 11:54:36;;;;;;;7.60;6.37;;;;;;;;;;5077925;28;20267;-79
2021/07/04 11:59:52;;;;;;;8.23;6.03;;;;;;;;;;5087712;28;20794;-77
2021/07/04 12:02:18;;;;;;;7.33;6.73;;;;;;;;;;5078975;28;20565;-80
2021/07/04 12:04:45;;;;;;;6.90;6.23;;;;;;;;;;5085719;28;21667;-82
2021/07/04 12:07:12;;;;;;;10.33;6.87;;;;;;;;;;5090250;28;20287;-79
2021/07/04 12:09:49;;;;;;;6.97;6.27;;;;;;;;;;5081841;28;20180;-77
2021/07/04 12:12:25;;;;;;;7.47;6.70;;;;;;;;;;5087950;28;20190;-79
2021/07/04 12:14:58;;;;;;;7.80;7.00;;;;;;;;;;5082524;28;20213;-77
2021/07/04 12:17:38;;;;;;;11.67;7.60;;;;;;;;;;5081350;28;20268;-79
2021/07/04 12:20:19;;;;;;;9.43;8.30;;;;;;;;;;5075964;28;20176;-80
2021/07/04 12:22:48;;;;;;;11.43;8.47;;;;;;;;;;5083057;28;20245;-83
2021/07/04 12:25:19;;;;;;;10.40;9.00;;;;;;;;;;5082602;28;20544;-83
2021/07/04 12:27:47;;;;;;;19.10;10.23;;;;;;;;;;5080766;28;20505;-83
2021/07/04 12:30:15;;;;;;;13.37;10.03;;;;;;;;;;5082058;28;20192;-83
2021/07/04 12:32:42;;;;;;;11.30;8.97;;;;;;;;;;5087157;28;20310;-83
2021/07/04 12:35:10;;;;;;;14.40;8.27;;;;;;;;;;5085953;28;20196;-85
2021/07/04 12:37:36;;;;;;;8.90;8.10;;;;;;;;;;5056127;28;20227;-83
2021/07/04 12:40:22;;;;;;;9.47;7.80;;;;;;;;;;5074898;28;20227;-83
2021/07/04 12:42:49;;;;;;;11.37;8.30;;;;;;;;;;5053696;28;20220;-83
2021/07/04 12:45:16;;;;;;;12.00;9.00;;;;;;;;;;5056114;28;20177;-83
2021/07/04 12:47:42;;;;;;;9.40;8.40;;;;;;;;;;5059802;28;20184;-83
2021/07/04 12:50:13;;;;;;;8.87;7.93;;;;;;;;;;5062198;28;20191;-83
2021/07/04 12:52:53;;;;;;;9.53;8.10;;;;;;;;;;5076532;28;20271;-82
2021/07/04 12:55:34;;;;;;;7.87;7.23;;;;;;;;;;5058742;28;20535;-82
2021/07/04 12:58:18;;;;;;;7.50;6.80;;;;;;;;;;5057097;28;20215;-82
2021/07/04 13:00:44;;;;;;;7.88;5.55;;;;;;;;;;5059445;28;20409;-84
2021/07/04 13:03:10;;;;;;;3.27;2.70;;;;;;;;;;5056137;28;20204;-82
2021/07/04 13:05:37;;;;;;;3.00;2.53;;;;;;;;;;5057613;28;20266;-80
2021/07/04 13:08:10;;;;;;;3.07;2.77;;;;;;;;;;5055328;28;20204;-82
2021/07/04 13:10:36;;;;;;;3.20;2.90;;;;;;;;;;5078907;28;20165;-84
2021/07/04 13:13:09;;;;;;;3.93;3.13;;;;;;;;;;5055727;28;20195;-81
2021/07/04 13:15:36;;;;;;;3.60;3.30;;;;;;;;;;5060456;28;20191;-84
2021/07/04 13:18:02;;;;;;;3.87;3.40;;;;;;;;;;5060187;28;20267;-82
2021/07/04 13:20:28;;;;;;;3.63;3.27;;;;;;;;;;5056430;28;20215;-82
2021/07/04 13:22:57;;;;;;;5.03;3.83;;;;;;;;;;5053277;28;20207;-82
2021/07/04 13:25:24;;;;;;;14.37;4.73;;;;;;;;;;5063046;28;20190;-82
2021/07/04 13:28:01;;;;;;;7.27;4.80;;;;;;;;;;5052633;28;20643;-82
2021/07/04 13:30:28;;;;;;;7.90;3.57;;;;;;;;;;5052542;28;20179;-82
2021/07/04 13:32:59;;;;;;;6.63;3.83;;;;;;;;;;5053987;28;20697;-83
2021/07/04 13:35:28;;;;;;;5.03;4.20;;;;;;;;;;5055659;28;20263;-83
2021/07/04 13:37:56;;;;;;;4.13;2.77;;;;;;;;;;5087001;28;20178;-83
2021/07/04 13:40:23;;;;;;;3.10;2.43;;;;;;;;;;5087941;28;20205;-85
2021/07/04 13:42:53;;;;;;;2.40;2.07;;;;;;;;;;5088853;28;20213;-83
2021/07/04 13:45:36;;;;;;;3.50;3.20;;;;;;;;;;5088773;28;20267;-83
2021/07/04 13:48:04;;;;;;;7.30;3.50;;;;;;;;;;5090281;28;20312;-84
2021/07/04 13:50:31;;;;;;;5.17;2.87;;;;;;;;;;5090080;28;20180;-83
2021/07/04 13:52:58;;;;;;;11.37;2.97;;;;;;;;;;5102956;28;20242;-84
2021/07/04 13:55:25;;;;;;;3.63;2.23;;;;;;;;;;5097647;28;20293;-80
2021/07/04 13:57:51;;;;;;;3.00;2.10;;;;;;;;;;5089613;28;20279;-84
2021/07/04 14:00:17;;;;;;;3.57;1.70;;;;;;;;;;5099530;28;20187;-84
2021/07/04 14:02:43;;;;;;;2.73;1.93;;;;;;;;;;5098126;28;20204;-84
2021/07/04 14:05:09;;;;;;;3.97;2.27;;;;;;;;;;5101636;28;20176;-84
2021/07/04 14:07:35;;;;;;;2.90;2.40;;;;;;;;;;5091123;28;20207;-80
2021/07/04 14:10:02;;;;;;;6.00;2.67;;;;;;;;;;5101117;28;20172;-79
2021/07/04 14:12:28;;;;;;;4.30;2.70;;;;;;;;;;5102176;28;20187;-78
2021/07/04 14:14:54;;;;;;;4.33;2.90;;;;;;;;;;5097840;28;20164;-84
2021/07/04 14:17:20;;;;;;;5.53;2.60;;;;;;;;;;5091887;28;20191;-84
2021/07/04 14:19:49;;;;;;;8.97;3.43;;;;;;;;;;5098237;28;20251;-83
2021/07/04 14:22:15;;;;;;;8.00;2.93;;;;;;;;;;5099450;28;20192;-84
2021/07/04 14:24:41;;;;;;;4.57;2.70;;;;;;;;;;5078452;28;20187;-81
2021/07/04 14:27:07;;;;;;;3.60;2.60;;;;;;;;;;5095042;28;20234;-85
2021/07/04 14:29:33;;;;;;;5.73;2.83;;;;;;;;;;5086664;28;20222;-85
2021/07/04 14:32:00;;;;;;;3.97;3.00;;;;;;;;;;5092202;28;20275;-80
2021/07/04 14:34:26;;;;;;;7.13;3.17;;;;;;;;;;5086573;28;20179;-82
2021/07/04 14:36:52;;;;;;;6.55;3.83;;;;;;;;;;5086424;28;20430;-81
2021/07/04 14:39:18;;;;;;;9.03;3.73;;;;;;;;;;5090326;28;20237;-82
2021/07/04 14:41:44;;;;;;;6.00;3.17;;;;;;;;;;5095662;28;20176;-82